sensor_id;sensor_type;location;lat;lon;timestamp;P1;durP1;ratioP1;P2;durP2;ratioP2
40511;SDS011;26213;52.446;20.706;2023-01-15T00:00:45;10.85;;;5.45;;
40511;SDS011;26213;52.446;20.706;2023-01-15T00:03:11;14.75;;;6.00;;
40511;SDS011;26213;52.446;20.706;2023-01-15T00:05:36;13.10;;;5.38;;
40511;SDS011;26213;52.446;20.706;2023-01-15T00:08:02;19.02;;;7.93;;
40511;SDS011;26213;52.446;20.706;2023-01-15T00:10:36;13.82;;;6.55;;
40511;SDS011;26213;52.446;20.706;2023-01-15T00:13:02;14.27;;;6.13;;
40511;SDS011;26213;52.446;20.706;2023-01-15T00:15:28;10.98;;;5.18;;
40511;SDS011;26213;52.446;20.706;2023-01-15T00:17:53;17.75;;;7.68;;
40511;SDS011;26213;52.446;20.706;2023-01-15T00:20:19;11.95;;;5.40;;
40511;SDS011;26213;52.446;20.706;2023-01-15T00:22:44;12.00;;;6.05;;
40511;SDS011;26213;52.446;20.706;2023-01-15T00:25:10;11.90;;;5.93;;
40511;SDS011;26213;52.446;20.706;2023-01-15T00:27:54;12.07;;;5.63;;
40511;SDS011;26213;52.446;20.706;2023-01-15T00:30:19;14.20;;;5.22;;
40511;SDS011;26213;52.446;20.706;2023-01-15T00:32:45;14.75;;;6.38;;
40511;SDS011;26213;52.446;20.706;2023-01-15T00:35:12;9.70;;;5.18;;
40511;SDS011;26213;52.446;20.706;2023-01-15T00:37:38;11.93;;;5.55;;
40511;SDS011;26213;52.446;20.706;2023-01-15T00:40:04;11.63;;;5.25;;
40511;SDS011;26213;52.446;20.706;2023-01-15T00:42:30;12.20;;;6.05;;
40511;SDS011;26213;52.446;20.706;2023-01-15T00:44:55;12.65;;;5.80;;
40511;SDS011;26213;52.446;20.706;2023-01-15T00:47:20;10.77;;;6.20;;
40511;SDS011;26213;52.446;20.706;2023-01-15T00:49:46;18.30;;;6.43;;
40511;SDS011;26213;52.446;20.706;2023-01-15T00:52:11;10.73;;;5.30;;
40511;SDS011;26213;52.446;20.706;2023-01-15T00:54:37;12.90;;;6.13;;
40511;SDS011;26213;52.446;20.706;2023-01-15T00:57:02;12.65;;;6.05;;
40511;SDS011;26213;52.446;20.706;2023-01-15T00:59:28;13.13;;;6.05;;
40511;SDS011;26213;52.446;20.706;2023-01-15T01:01:53;10.90;;;5.88;;
40511;SDS011;26213;52.446;20.706;2023-01-15T01:04:19;13.55;;;5.85;;
40511;SDS011;26213;52.446;20.706;2023-01-15T01:06:44;12.70;;;5.75;;
40511;SDS011;26213;52.446;20.706;2023-01-15T01:09:13;12.48;;;5.75;;
40511;SDS011;26213;52.446;20.706;2023-01-15T01:11:39;14.18;;;6.00;;
40511;SDS011;26213;52.446;20.706;2023-01-15T01:14:04;8.68;;;4.70;;
40511;SDS011;26213;52.446;20.706;2023-01-15T01:16:31;10.32;;;5.70;;
40511;SDS011;26213;52.446;20.706;2023-01-15T01:19:14;12.32;;;5.68;;
40511;SDS011;26213;52.446;20.706;2023-01-15T01:21:42;14.02;;;6.68;;
40511;SDS011;26213;52.446;20.706;2023-01-15T01:24:09;12.90;;;6.10;;
40511;SDS011;26213;52.446;20.706;2023-01-15T01:26:36;14.43;;;6.63;;
40511;SDS011;26213;52.446;20.706;2023-01-15T01:29:01;11.63;;;5.95;;
40511;SDS011;26213;52.446;20.706;2023-01-15T01:31:27;13.18;;;5.70;;
40511;SDS011;26213;52.446;20.706;2023-01-15T01:33:54;10.82;;;6.18;;
40511;SDS011;26213;52.446;20.706;2023-01-15T01:38:50;13.95;;;5.80;;
40511;SDS011;26213;52.446;20.706;2023-01-15T01:41:16;10.32;;;5.63;;
40511;SDS011;26213;52.446;20.706;2023-01-15T01:46:28;13.48;;;6.30;;
40511;SDS011;26213;52.446;20.706;2023-01-15T01:48:56;13.88;;;6.25;;
40511;SDS011;26213;52.446;20.706;2023-01-15T01:51:28;17.75;;;7.18;;
40511;SDS011;26213;52.446;20.706;2023-01-15T01:53:56;11.40;;;6.20;;
40511;SDS011;26213;52.446;20.706;2023-01-15T01:56:22;14.43;;;6.65;;
40511;SDS011;26213;52.446;20.706;2023-01-15T01:58:49;13.38;;;5.82;;
40511;SDS011;26213;52.446;20.706;2023-01-15T02:01:17;12.77;;;6.10;;
40511;SDS011;26213;52.446;20.706;2023-01-15T02:03:43;13.52;;;7.55;;
40511;SDS011;26213;52.446;20.706;2023-01-15T02:06:09;14.00;;;6.13;;
40511;SDS011;26213;52.446;20.706;2023-01-15T02:08:35;12.00;;;5.55;;
40511;SDS011;26213;52.446;20.706;2023-01-15T02:11:03;13.30;;;6.05;;
40511;SDS011;26213;52.446;20.706;2023-01-15T02:13:31;14.95;;;6.75;;
40511;SDS011;26213;52.446;20.706;2023-01-15T02:16:07;11.98;;;6.43;;
40511;SDS011;26213;52.446;20.706;2023-01-15T02:18:40;14.43;;;6.68;;
40511;SDS011;26213;52.446;20.706;2023-01-15T02:24:22;10.63;;;4.93;;
40511;SDS011;26213;52.446;20.706;2023-01-15T02:29:42;12.15;;;5.85;;
40511;SDS011;26213;52.446;20.706;2023-01-15T02:32:14;9.27;;;5.28;;
40511;SDS011;26213;52.446;20.706;2023-01-15T02:34:45;11.20;;;5.55;;
40511;SDS011;26213;52.446;20.706;2023-01-15T02:37:15;11.65;;;6.03;;
40511;SDS011;26213;52.446;20.706;2023-01-15T02:39:45;10.88;;;5.38;;
40511;SDS011;26213;52.446;20.706;2023-01-15T02:42:11;14.02;;;6.35;;
40511;SDS011;26213;52.446;20.706;2023-01-15T02:44:39;12.13;;;5.93;;
40511;SDS011;26213;52.446;20.706;2023-01-15T02:47:06;12.85;;;5.78;;
40511;SDS011;26213;52.446;20.706;2023-01-15T02:49:32;15.13;;;6.10;;
40511;SDS011;26213;52.446;20.706;2023-01-15T02:52:00;13.35;;;5.97;;
40511;SDS011;26213;52.446;20.706;2023-01-15T02:54:30;14.32;;;5.45;;
40511;SDS011;26213;52.446;20.706;2023-01-15T02:57:00;10.55;;;6.28;;
40511;SDS011;26213;52.446;20.706;2023-01-15T02:59:28;13.43;;;5.03;;
40511;SDS011;26213;52.446;20.706;2023-01-15T03:02:00;11.38;;;6.22;;
40511;SDS011;26213;52.446;20.706;2023-01-15T03:04:32;11.95;;;5.20;;
40511;SDS011;26213;52.446;20.706;2023-01-15T03:09:35;9.98;;;5.45;;
40511;SDS011;26213;52.446;20.706;2023-01-15T03:12:10;9.88;;;5.13;;
40511;SDS011;26213;52.446;20.706;2023-01-15T03:17:36;9.88;;;4.93;;
40511;SDS011;26213;52.446;20.706;2023-01-15T03:20:10;8.00;;;4.63;;
40511;SDS011;26213;52.446;20.706;2023-01-15T03:22:39;11.43;;;5.22;;
40511;SDS011;26213;52.446;20.706;2023-01-15T03:25:10;11.18;;;5.32;;
40511;SDS011;26213;52.446;20.706;2023-01-15T03:27:38;10.13;;;4.93;;
40511;SDS011;26213;52.446;20.706;2023-01-15T03:30:13;9.43;;;5.68;;
40511;SDS011;26213;52.446;20.706;2023-01-15T03:32:41;8.60;;;4.80;;
40511;SDS011;26213;52.446;20.706;2023-01-15T03:35:07;12.13;;;5.32;;
40511;SDS011;26213;52.446;20.706;2023-01-15T03:37:53;16.48;;;5.57;;
40511;SDS011;26213;52.446;20.706;2023-01-15T03:40:18;10.38;;;4.28;;
40511;SDS011;26213;52.446;20.706;2023-01-15T03:42:53;8.52;;;4.60;;
40511;SDS011;26213;52.446;20.706;2023-01-15T03:45:41;9.65;;;4.63;;
40511;SDS011;26213;52.446;20.706;2023-01-15T03:48:10;7.75;;;3.95;;
40511;SDS011;26213;52.446;20.706;2023-01-15T03:50:56;8.10;;;4.35;;
40511;SDS011;26213;52.446;20.706;2023-01-15T03:54:13;10.20;;;4.35;;
40511;SDS011;26213;52.446;20.706;2023-01-15T03:56:17;9.00;;;4.63;;
40511;SDS011;26213;52.446;20.706;2023-01-15T03:59:08;11.77;;;4.55;;
40511;SDS011;26213;52.446;20.706;2023-01-15T04:01:37;9.88;;;4.60;;
40511;SDS011;26213;52.446;20.706;2023-01-15T04:04:04;9.05;;;4.60;;
40511;SDS011;26213;52.446;20.706;2023-01-15T04:06:35;9.70;;;4.20;;
40511;SDS011;26213;52.446;20.706;2023-01-15T04:09:03;8.35;;;4.60;;
40511;SDS011;26213;52.446;20.706;2023-01-15T04:11:31;7.85;;;4.43;;
40511;SDS011;26213;52.446;20.706;2023-01-15T04:13:56;10.02;;;4.80;;
40511;SDS011;26213;52.446;20.706;2023-01-15T04:16:28;9.32;;;4.18;;
40511;SDS011;26213;52.446;20.706;2023-01-15T04:18:55;9.93;;;4.25;;
40511;SDS011;26213;52.446;20.706;2023-01-15T04:21:21;9.02;;;5.18;;
40511;SDS011;26213;52.446;20.706;2023-01-15T04:23:46;6.88;;;3.78;;
40511;SDS011;26213;52.446;20.706;2023-01-15T04:26:12;9.48;;;4.30;;
40511;SDS011;26213;52.446;20.706;2023-01-15T04:28:39;9.60;;;4.00;;
40511;SDS011;26213;52.446;20.706;2023-01-15T04:31:04;10.07;;;4.55;;
40511;SDS011;26213;52.446;20.706;2023-01-15T04:33:30;8.15;;;4.72;;
40511;SDS011;26213;52.446;20.706;2023-01-15T04:35:57;9.68;;;4.00;;
40511;SDS011;26213;52.446;20.706;2023-01-15T04:38:24;10.15;;;4.72;;
40511;SDS011;26213;52.446;20.706;2023-01-15T04:40:49;12.63;;;4.45;;
40511;SDS011;26213;52.446;20.706;2023-01-15T04:43:33;8.57;;;4.40;;
40511;SDS011;26213;52.446;20.706;2023-01-15T04:46:19;6.32;;;3.50;;
40511;SDS011;26213;52.446;20.706;2023-01-15T04:48:48;7.72;;;4.15;;
40511;SDS011;26213;52.446;20.706;2023-01-15T04:51:14;12.15;;;4.25;;
40511;SDS011;26213;52.446;20.706;2023-01-15T04:53:39;10.73;;;4.82;;
40511;SDS011;26213;52.446;20.706;2023-01-15T04:56:06;9.73;;;4.50;;
40511;SDS011;26213;52.446;20.706;2023-01-15T04:58:32;11.13;;;4.57;;
40511;SDS011;26213;52.446;20.706;2023-01-15T05:00:57;10.68;;;4.70;;
40511;SDS011;26213;52.446;20.706;2023-01-15T05:03:27;9.00;;;4.07;;
40511;SDS011;26213;52.446;20.706;2023-01-15T05:05:53;8.68;;;4.43;;
40511;SDS011;26213;52.446;20.706;2023-01-15T05:08:18;8.95;;;4.20;;
40511;SDS011;26213;52.446;20.706;2023-01-15T05:10:44;8.48;;;4.28;;
40511;SDS011;26213;52.446;20.706;2023-01-15T05:13:09;9.13;;;4.15;;
40511;SDS011;26213;52.446;20.706;2023-01-15T05:15:35;9.27;;;3.90;;
40511;SDS011;26213;52.446;20.706;2023-01-15T05:18:02;7.55;;;4.10;;
40511;SDS011;26213;52.446;20.706;2023-01-15T05:20:28;8.38;;;3.63;;
40511;SDS011;26213;52.446;20.706;2023-01-15T05:22:53;8.43;;;4.07;;
40511;SDS011;26213;52.446;20.706;2023-01-15T05:25:19;10.43;;;4.25;;
40511;SDS011;26213;52.446;20.706;2023-01-15T05:27:44;11.52;;;4.78;;
40511;SDS011;26213;52.446;20.706;2023-01-15T05:30:10;10.45;;;3.95;;
40511;SDS011;26213;52.446;20.706;2023-01-15T05:32:35;7.75;;;4.20;;
40511;SDS011;26213;52.446;20.706;2023-01-15T05:35:01;6.85;;;3.85;;
40511;SDS011;26213;52.446;20.706;2023-01-15T05:37:28;8.15;;;3.75;;
40511;SDS011;26213;52.446;20.706;2023-01-15T05:39:54;8.82;;;4.25;;
40511;SDS011;26213;52.446;20.706;2023-01-15T05:42:20;7.38;;;4.18;;
40511;SDS011;26213;52.446;20.706;2023-01-15T05:44:45;8.57;;;4.05;;
40511;SDS011;26213;52.446;20.706;2023-01-15T05:47:11;7.80;;;3.65;;
40511;SDS011;26213;52.446;20.706;2023-01-15T05:49:36;6.45;;;3.42;;
40511;SDS011;26213;52.446;20.706;2023-01-15T05:52:02;7.00;;;3.33;;
40511;SDS011;26213;52.446;20.706;2023-01-15T05:54:29;9.57;;;3.88;;
40511;SDS011;26213;52.446;20.706;2023-01-15T05:56:58;9.57;;;4.07;;
40511;SDS011;26213;52.446;20.706;2023-01-15T05:59:25;6.72;;;3.05;;
40511;SDS011;26213;52.446;20.706;2023-01-15T06:01:52;9.35;;;3.22;;
40511;SDS011;26213;52.446;20.706;2023-01-15T06:04:18;8.43;;;3.03;;
40511;SDS011;26213;52.446;20.706;2023-01-15T06:06:46;5.13;;;2.90;;
40511;SDS011;26213;52.446;20.706;2023-01-15T06:09:12;8.20;;;3.17;;
40511;SDS011;26213;52.446;20.706;2023-01-15T06:11:38;8.63;;;3.47;;
40511;SDS011;26213;52.446;20.706;2023-01-15T06:14:03;6.00;;;2.90;;
40511;SDS011;26213;52.446;20.706;2023-01-15T06:16:29;7.15;;;3.53;;
40511;SDS011;26213;52.446;20.706;2023-01-15T06:18:55;6.75;;;3.53;;
40511;SDS011;26213;52.446;20.706;2023-01-15T06:21:24;8.65;;;3.28;;
40511;SDS011;26213;52.446;20.706;2023-01-15T06:23:51;6.53;;;3.28;;
40511;SDS011;26213;52.446;20.706;2023-01-15T06:26:17;6.88;;;3.55;;
40511;SDS011;26213;52.446;20.706;2023-01-15T06:28:42;7.13;;;3.22;;
40511;SDS011;26213;52.446;20.706;2023-01-15T06:31:10;6.95;;;3.60;;
40511;SDS011;26213;52.446;20.706;2023-01-15T06:33:36;8.18;;;3.47;;
40511;SDS011;26213;52.446;20.706;2023-01-15T06:36:06;7.13;;;2.88;;
40511;SDS011;26213;52.446;20.706;2023-01-15T06:38:33;6.82;;;3.20;;
40511;SDS011;26213;52.446;20.706;2023-01-15T06:40:59;6.18;;;3.17;;
40511;SDS011;26213;52.446;20.706;2023-01-15T06:43:25;7.73;;;3.13;;
40511;SDS011;26213;52.446;20.706;2023-01-15T06:46:10;6.50;;;3.38;;
40511;SDS011;26213;52.446;20.706;2023-01-15T06:48:54;7.32;;;3.28;;
40511;SDS011;26213;52.446;20.706;2023-01-15T06:51:20;6.85;;;3.17;;
40511;SDS011;26213;52.446;20.706;2023-01-15T06:53:46;6.40;;;3.40;;
40511;SDS011;26213;52.446;20.706;2023-01-15T06:56:12;6.72;;;4.30;;
40511;SDS011;26213;52.446;20.706;2023-01-15T06:58:41;6.78;;;3.28;;
40511;SDS011;26213;52.446;20.706;2023-01-15T07:01:08;8.05;;;3.78;;
40511;SDS011;26213;52.446;20.706;2023-01-15T07:03:34;5.78;;;3.40;;
40511;SDS011;26213;52.446;20.706;2023-01-15T07:06:04;7.07;;;3.67;;
40511;SDS011;26213;52.446;20.706;2023-01-15T07:08:30;22.23;;;4.55;;
40511;SDS011;26213;52.446;20.706;2023-01-15T07:11:00;14.15;;;5.57;;
40511;SDS011;26213;52.446;20.706;2023-01-15T07:13:26;19.40;;;9.38;;
40511;SDS011;26213;52.446;20.706;2023-01-15T07:15:51;14.75;;;6.38;;
40511;SDS011;26213;52.446;20.706;2023-01-15T07:18:17;9.30;;;4.20;;
40511;SDS011;26213;52.446;20.706;2023-01-15T07:20:42;9.25;;;4.38;;
40511;SDS011;26213;52.446;20.706;2023-01-15T07:23:07;7.38;;;3.40;;
40511;SDS011;26213;52.446;20.706;2023-01-15T07:25:33;6.13;;;3.60;;
40511;SDS011;26213;52.446;20.706;2023-01-15T07:27:58;8.27;;;4.35;;
40511;SDS011;26213;52.446;20.706;2023-01-15T07:30:23;10.88;;;4.22;;
40511;SDS011;26213;52.446;20.706;2023-01-15T07:32:49;8.85;;;4.10;;
40511;SDS011;26213;52.446;20.706;2023-01-15T07:35:14;11.02;;;4.78;;
40511;SDS011;26213;52.446;20.706;2023-01-15T07:37:40;11.48;;;6.75;;
40511;SDS011;26213;52.446;20.706;2023-01-15T07:40:05;8.07;;;4.20;;
40511;SDS011;26213;52.446;20.706;2023-01-15T07:42:31;9.10;;;4.63;;
40511;SDS011;26213;52.446;20.706;2023-01-15T07:45:15;9.60;;;3.92;;
40511;SDS011;26213;52.446;20.706;2023-01-15T07:47:59;6.18;;;3.30;;
40511;SDS011;26213;52.446;20.706;2023-01-15T07:50:52;8.55;;;3.83;;
40511;SDS011;26213;52.446;20.706;2023-01-15T07:53:23;7.63;;;3.28;;
40511;SDS011;26213;52.446;20.706;2023-01-15T07:55:48;9.15;;;4.03;;
40511;SDS011;26213;52.446;20.706;2023-01-15T07:58:14;9.35;;;3.65;;
40511;SDS011;26213;52.446;20.706;2023-01-15T08:00:40;8.38;;;3.25;;
40511;SDS011;26213;52.446;20.706;2023-01-15T08:03:05;9.30;;;3.78;;
40511;SDS011;26213;52.446;20.706;2023-01-15T08:05:31;7.78;;;3.97;;
40511;SDS011;26213;52.446;20.706;2023-01-15T08:07:56;7.25;;;3.85;;
40511;SDS011;26213;52.446;20.706;2023-01-15T08:10:22;6.97;;;3.47;;
40511;SDS011;26213;52.446;20.706;2023-01-15T08:12:49;4.65;;;2.83;;
40511;SDS011;26213;52.446;20.706;2023-01-15T08:15:33;4.47;;;2.80;;
40511;SDS011;26213;52.446;20.706;2023-01-15T08:18:02;6.18;;;3.22;;
40511;SDS011;26213;52.446;20.706;2023-01-15T08:20:29;6.25;;;3.15;;
40511;SDS011;26213;52.446;20.706;2023-01-15T08:22:54;6.32;;;3.75;;
40511;SDS011;26213;52.446;20.706;2023-01-15T08:25:21;5.60;;;3.20;;
40511;SDS011;26213;52.446;20.706;2023-01-15T08:27:48;6.82;;;3.17;;
40511;SDS011;26213;52.446;20.706;2023-01-15T08:30:17;6.65;;;3.47;;
40511;SDS011;26213;52.446;20.706;2023-01-15T08:32:47;6.22;;;2.88;;
40511;SDS011;26213;52.446;20.706;2023-01-15T08:35:13;7.00;;;3.00;;
40511;SDS011;26213;52.446;20.706;2023-01-15T08:37:39;5.78;;;3.15;;
40511;SDS011;26213;52.446;20.706;2023-01-15T08:40:05;6.57;;;2.88;;
40511;SDS011;26213;52.446;20.706;2023-01-15T08:42:31;4.57;;;2.88;;
40511;SDS011;26213;52.446;20.706;2023-01-15T08:44:57;6.68;;;2.72;;
40511;SDS011;26213;52.446;20.706;2023-01-15T08:47:23;8.27;;;2.83;;
40511;SDS011;26213;52.446;20.706;2023-01-15T08:49:49;8.48;;;3.40;;
40511;SDS011;26213;52.446;20.706;2023-01-15T08:52:14;6.75;;;3.35;;
40511;SDS011;26213;52.446;20.706;2023-01-15T08:54:40;8.18;;;2.65;;
40511;SDS011;26213;52.446;20.706;2023-01-15T08:57:05;7.68;;;2.92;;
40511;SDS011;26213;52.446;20.706;2023-01-15T08:59:33;6.13;;;3.03;;
40511;SDS011;26213;52.446;20.706;2023-01-15T09:01:58;5.15;;;2.20;;
40511;SDS011;26213;52.446;20.706;2023-01-15T09:04:24;6.13;;;3.20;;
40511;SDS011;26213;52.446;20.706;2023-01-15T09:06:50;10.60;;;6.30;;
40511;SDS011;26213;52.446;20.706;2023-01-15T09:09:15;8.40;;;3.65;;
40511;SDS011;26213;52.446;20.706;2023-01-15T09:11:42;4.90;;;2.90;;
40511;SDS011;26213;52.446;20.706;2023-01-15T09:14:08;5.45;;;3.08;;
40511;SDS011;26213;52.446;20.706;2023-01-15T09:16:36;5.82;;;3.08;;
40511;SDS011;26213;52.446;20.706;2023-01-15T09:19:02;8.25;;;3.95;;
40511;SDS011;26213;52.446;20.706;2023-01-15T09:21:29;7.43;;;3.90;;
40511;SDS011;26213;52.446;20.706;2023-01-15T09:23:54;8.32;;;4.05;;
40511;SDS011;26213;52.446;20.706;2023-01-15T09:26:27;8.85;;;3.63;;
40511;SDS011;26213;52.446;20.706;2023-01-15T09:29:03;7.70;;;4.43;;
40511;SDS011;26213;52.446;20.706;2023-01-15T09:31:29;5.35;;;3.40;;
40511;SDS011;26213;52.446;20.706;2023-01-15T09:33:55;8.57;;;3.45;;
40511;SDS011;26213;52.446;20.706;2023-01-15T09:36:25;5.32;;;2.65;;
40511;SDS011;26213;52.446;20.706;2023-01-15T09:38:52;9.55;;;3.58;;
40511;SDS011;26213;52.446;20.706;2023-01-15T09:41:18;8.18;;;3.38;;
40511;SDS011;26213;52.446;20.706;2023-01-15T09:47:03;6.57;;;3.00;;
40511;SDS011;26213;52.446;20.706;2023-01-15T09:55:19;8.20;;;3.08;;
40511;SDS011;26213;52.446;20.706;2023-01-15T09:57:49;6.68;;;3.60;;
40511;SDS011;26213;52.446;20.706;2023-01-15T10:00:17;15.65;;;13.88;;
40511;SDS011;26213;52.446;20.706;2023-01-15T10:02:46;19.60;;;11.45;;
40511;SDS011;26213;52.446;20.706;2023-01-15T10:07:56;32.47;;;25.00;;
40511;SDS011;26213;52.446;20.706;2023-01-15T10:10:47;8.10;;;6.03;;
40511;SDS011;26213;52.446;20.706;2023-01-15T10:13:20;10.48;;;6.45;;
40511;SDS011;26213;52.446;20.706;2023-01-15T10:18:28;7.13;;;4.30;;
40511;SDS011;26213;52.446;20.706;2023-01-15T10:20:57;8.02;;;3.63;;
40511;SDS011;26213;52.446;20.706;2023-01-15T10:28:49;8.77;;;4.70;;
40511;SDS011;26213;52.446;20.706;2023-01-15T10:37:10;10.20;;;6.20;;
40511;SDS011;26213;52.446;20.706;2023-01-15T10:42:35;36.75;;;19.27;;
40511;SDS011;26213;52.446;20.706;2023-01-15T10:47:47;13.60;;;4.53;;
40511;SDS011;26213;52.446;20.706;2023-01-15T10:50:17;115.35;;;52.60;;
40511;SDS011;26213;52.446;20.706;2023-01-15T10:52:49;138.40;;;55.00;;
40511;SDS011;26213;52.446;20.706;2023-01-15T10:55:26;155.68;;;58.53;;
40511;SDS011;26213;52.446;20.706;2023-01-15T11:00:33;94.72;;;34.60;;
40511;SDS011;26213;52.446;20.706;2023-01-15T11:03:00;34.55;;;12.25;;
40511;SDS011;26213;52.446;20.706;2023-01-15T11:05:32;85.10;;;37.78;;
40511;SDS011;26213;52.446;20.706;2023-01-15T11:07:58;24.02;;;12.05;;
40511;SDS011;26213;52.446;20.706;2023-01-15T11:10:25;95.60;;;42.20;;
40511;SDS011;26213;52.446;20.706;2023-01-15T11:12:53;51.03;;;21.13;;
40511;SDS011;26213;52.446;20.706;2023-01-15T11:15:38;52.20;;;25.23;;
40511;SDS011;26213;52.446;20.706;2023-01-15T11:18:26;57.80;;;25.65;;
40511;SDS011;26213;52.446;20.706;2023-01-15T11:21:15;19.23;;;8.13;;
40511;SDS011;26213;52.446;20.706;2023-01-15T11:23:42;80.53;;;34.47;;
40511;SDS011;26213;52.446;20.706;2023-01-15T11:26:08;25.90;;;12.65;;
40511;SDS011;26213;52.446;20.706;2023-01-15T11:31:04;15.07;;;7.65;;
40511;SDS011;26213;52.446;20.706;2023-01-15T11:33:33;34.70;;;18.92;;
40511;SDS011;26213;52.446;20.706;2023-01-15T11:36:00;21.25;;;12.48;;
40511;SDS011;26213;52.446;20.706;2023-01-15T11:40:59;18.65;;;11.60;;
40511;SDS011;26213;52.446;20.706;2023-01-15T11:43:27;18.13;;;10.90;;
40511;SDS011;26213;52.446;20.706;2023-01-15T11:46:28;9.75;;;4.88;;
40511;SDS011;26213;52.446;20.706;2023-01-15T11:49:15;10.80;;;5.65;;
40511;SDS011;26213;52.446;20.706;2023-01-15T11:52:07;14.10;;;6.78;;
40511;SDS011;26213;52.446;20.706;2023-01-15T11:54:38;12.40;;;6.40;;
40511;SDS011;26213;52.446;20.706;2023-01-15T11:57:06;9.00;;;4.60;;
40511;SDS011;26213;52.446;20.706;2023-01-15T11:59:32;10.75;;;5.72;;
40511;SDS011;26213;52.446;20.706;2023-01-15T12:01:58;13.40;;;8.70;;
40511;SDS011;26213;52.446;20.706;2023-01-15T12:04:29;8.82;;;6.13;;
40511;SDS011;26213;52.446;20.706;2023-01-15T12:06:59;9.00;;;5.22;;
40511;SDS011;26213;52.446;20.706;2023-01-15T12:09:35;11.35;;;5.93;;
40511;SDS011;26213;52.446;20.706;2023-01-15T12:12:44;12.65;;;6.93;;
40511;SDS011;26213;52.446;20.706;2023-01-15T12:20:34;8.38;;;4.80;;
40511;SDS011;26213;52.446;20.706;2023-01-15T12:23:22;7.72;;;4.55;;
40511;SDS011;26213;52.446;20.706;2023-01-15T12:25:58;9.95;;;6.07;;
40511;SDS011;26213;52.446;20.706;2023-01-15T12:28:32;11.98;;;6.38;;
40511;SDS011;26213;52.446;20.706;2023-01-15T12:31:00;9.45;;;5.65;;
40511;SDS011;26213;52.446;20.706;2023-01-15T12:33:48;14.48;;;7.43;;
40511;SDS011;26213;52.446;20.706;2023-01-15T12:36:19;12.25;;;6.35;;
40511;SDS011;26213;52.446;20.706;2023-01-15T12:41:26;16.02;;;8.50;;
40511;SDS011;26213;52.446;20.706;2023-01-15T12:44:21;9.68;;;4.65;;
40511;SDS011;26213;52.446;20.706;2023-01-15T12:47:13;10.10;;;6.68;;
40511;SDS011;26213;52.446;20.706;2023-01-15T12:49:43;11.25;;;7.60;;
40511;SDS011;26213;52.446;20.706;2023-01-15T12:52:17;8.43;;;4.82;;
40511;SDS011;26213;52.446;20.706;2023-01-15T12:55:00;15.80;;;9.82;;
40511;SDS011;26213;52.446;20.706;2023-01-15T12:57:32;9.23;;;5.32;;
40511;SDS011;26213;52.446;20.706;2023-01-15T13:02:46;10.15;;;5.97;;
40511;SDS011;26213;52.446;20.706;2023-01-15T13:05:29;8.80;;;4.65;;
40511;SDS011;26213;52.446;20.706;2023-01-15T13:10:30;12.15;;;5.65;;
40511;SDS011;26213;52.446;20.706;2023-01-15T13:13:15;10.68;;;6.30;;
40511;SDS011;26213;52.446;20.706;2023-01-15T13:16:03;12.10;;;6.57;;
40511;SDS011;26213;52.446;20.706;2023-01-15T13:21:04;14.80;;;8.75;;
40511;SDS011;26213;52.446;20.706;2023-01-15T13:29:12;8.05;;;4.93;;
40511;SDS011;26213;52.446;20.706;2023-01-15T13:40:03;10.63;;;5.35;;
40511;SDS011;26213;52.446;20.706;2023-01-15T13:42:34;9.77;;;4.95;;
40511;SDS011;26213;52.446;20.706;2023-01-15T13:47:42;8.10;;;4.72;;
40511;SDS011;26213;52.446;20.706;2023-01-15T13:50:13;10.32;;;4.88;;
40511;SDS011;26213;52.446;20.706;2023-01-15T13:52:41;14.25;;;7.90;;
40511;SDS011;26213;52.446;20.706;2023-01-15T13:57:41;11.32;;;6.13;;
40511;SDS011;26213;52.446;20.706;2023-01-15T14:02:59;9.73;;;4.65;;
40511;SDS011;26213;52.446;20.706;2023-01-15T14:07:59;68.07;;;37.83;;
40511;SDS011;26213;52.446;20.706;2023-01-15T14:13:12;9.93;;;5.90;;
40511;SDS011;26213;52.446;20.706;2023-01-15T14:16:03;11.68;;;4.90;;
40511;SDS011;26213;52.446;20.706;2023-01-15T14:21:11;13.65;;;8.20;;
40511;SDS011;26213;52.446;20.706;2023-01-15T14:23:55;21.75;;;10.95;;
40511;SDS011;26213;52.446;20.706;2023-01-15T14:26:43;24.65;;;11.00;;
40511;SDS011;26213;52.446;20.706;2023-01-15T14:29:24;15.05;;;10.25;;
40511;SDS011;26213;52.446;20.706;2023-01-15T14:32:07;14.88;;;9.50;;
40511;SDS011;26213;52.446;20.706;2023-01-15T14:34:36;11.05;;;6.45;;
40511;SDS011;26213;52.446;20.706;2023-01-15T14:39:36;15.18;;;8.60;;
40511;SDS011;26213;52.446;20.706;2023-01-15T14:42:22;11.95;;;6.35;;
40511;SDS011;26213;52.446;20.706;2023-01-15T14:47:47;10.98;;;6.20;;
40511;SDS011;26213;52.446;20.706;2023-01-15T14:58:43;14.85;;;8.13;;
40511;SDS011;26213;52.446;20.706;2023-01-15T15:01:20;11.68;;;7.18;;
40511;SDS011;26213;52.446;20.706;2023-01-15T15:03:59;17.38;;;9.88;;
40511;SDS011;26213;52.446;20.706;2023-01-15T15:06:36;32.83;;;12.73;;
40511;SDS011;26213;52.446;20.706;2023-01-15T15:09:25;36.50;;;21.90;;
40511;SDS011;26213;52.446;20.706;2023-01-15T15:11:52;17.52;;;11.10;;
40511;SDS011;26213;52.446;20.706;2023-01-15T15:14:37;22.30;;;14.02;;
40511;SDS011;26213;52.446;20.706;2023-01-15T15:17:04;24.40;;;13.73;;
40511;SDS011;26213;52.446;20.706;2023-01-15T15:19:35;19.73;;;12.25;;
40511;SDS011;26213;52.446;20.706;2023-01-15T15:22:05;31.98;;;16.35;;
40511;SDS011;26213;52.446;20.706;2023-01-15T15:24:34;26.45;;;14.73;;
40511;SDS011;26213;52.446;20.706;2023-01-15T15:27:19;17.52;;;9.07;;
40511;SDS011;26213;52.446;20.706;2023-01-15T15:29:46;32.22;;;19.20;;
40511;SDS011;26213;52.446;20.706;2023-01-15T15:32:22;13.00;;;7.38;;
40511;SDS011;26213;52.446;20.706;2023-01-15T15:34:49;21.00;;;11.05;;
40511;SDS011;26213;52.446;20.706;2023-01-15T15:37:24;15.50;;;9.15;;
40511;SDS011;26213;52.446;20.706;2023-01-15T15:39:57;17.05;;;9.90;;
40511;SDS011;26213;52.446;20.706;2023-01-15T15:42:31;21.00;;;12.00;;
40511;SDS011;26213;52.446;20.706;2023-01-15T15:45:28;19.58;;;11.60;;
40511;SDS011;26213;52.446;20.706;2023-01-15T15:48:20;16.60;;;9.10;;
40511;SDS011;26213;52.446;20.706;2023-01-15T15:56:41;16.13;;;8.85;;
40511;SDS011;26213;52.446;20.706;2023-01-15T15:59:14;26.50;;;13.77;;
40511;SDS011;26213;52.446;20.706;2023-01-15T16:04:49;22.35;;;12.43;;
40511;SDS011;26213;52.446;20.706;2023-01-15T16:07:23;32.40;;;17.23;;
40511;SDS011;26213;52.446;20.706;2023-01-15T16:09:57;34.35;;;20.73;;
40511;SDS011;26213;52.446;20.706;2023-01-15T16:14:58;25.23;;;12.40;;
40511;SDS011;26213;52.446;20.706;2023-01-15T16:17:24;23.25;;;12.25;;
40511;SDS011;26213;52.446;20.706;2023-01-15T16:19:55;36.60;;;19.20;;
40511;SDS011;26213;52.446;20.706;2023-01-15T16:22:21;102.45;;;39.50;;
40511;SDS011;26213;52.446;20.706;2023-01-15T16:24:54;74.80;;;34.30;;
40511;SDS011;26213;52.446;20.706;2023-01-15T16:27:21;84.10;;;36.22;;
40511;SDS011;26213;52.446;20.706;2023-01-15T16:29:47;57.20;;;26.85;;
40511;SDS011;26213;52.446;20.706;2023-01-15T16:32:21;20.77;;;10.15;;
40511;SDS011;26213;52.446;20.706;2023-01-15T16:34:57;25.92;;;10.98;;
40511;SDS011;26213;52.446;20.706;2023-01-15T16:37:32;52.88;;;23.65;;
40511;SDS011;26213;52.446;20.706;2023-01-15T16:40:00;53.17;;;25.80;;
40511;SDS011;26213;52.446;20.706;2023-01-15T16:45:20;88.53;;;38.05;;
40511;SDS011;26213;52.446;20.706;2023-01-15T16:47:59;119.60;;;50.50;;
40511;SDS011;26213;52.446;20.706;2023-01-15T16:50:45;68.68;;;28.83;;
40511;SDS011;26213;52.446;20.706;2023-01-15T16:53:28;113.05;;;45.85;;